sensor_id;sensor_type;location;lat;lon;timestamp;P1;durP1;ratioP1;P2;durP2;ratioP2
10134;SDS011;5107;48.850;8.924;2023-06-19T00:01:54;7.22;;;6.63;;
10134;SDS011;5107;48.850;8.924;2023-06-19T00:04:20;7.53;;;6.82;;
10134;SDS011;5107;48.850;8.924;2023-06-19T00:06:45;6.63;;;6.05;;
10134;SDS011;5107;48.850;8.924;2023-06-19T00:09:10;7.00;;;6.50;;
10134;SDS011;5107;48.850;8.924;2023-06-19T00:11:36;7.88;;;6.68;;
10134;SDS011;5107;48.850;8.924;2023-06-19T00:14:01;7.20;;;6.38;;
10134;SDS011;5107;48.850;8.924;2023-06-19T00:16:27;7.95;;;6.65;;
10134;SDS011;5107;48.850;8.924;2023-06-19T00:18:52;8.45;;;6.60;;
10134;SDS011;5107;48.850;8.924;2023-06-19T00:21:20;8.85;;;6.53;;
10134;SDS011;5107;48.850;8.924;2023-06-19T00:23:48;7.20;;;6.60;;
10134;SDS011;5107;48.850;8.924;2023-06-19T00:26:13;7.47;;;6.88;;
10134;SDS011;5107;48.850;8.924;2023-06-19T00:28:39;7.28;;;6.68;;
10134;SDS011;5107;48.850;8.924;2023-06-19T00:31:06;6.90;;;6.30;;
10134;SDS011;5107;48.850;8.924;2023-06-19T00:33:31;6.93;;;6.32;;
10134;SDS011;5107;48.850;8.924;2023-06-19T00:35:57;6.80;;;6.28;;
10134;SDS011;5107;48.850;8.924;2023-06-19T00:38:22;7.13;;;6.43;;
10134;SDS011;5107;48.850;8.924;2023-06-19T00:40:48;7.07;;;6.47;;
10134;SDS011;5107;48.850;8.924;2023-06-19T00:43:14;7.03;;;6.43;;
10134;SDS011;5107;48.850;8.924;2023-06-19T00:45:39;7.38;;;6.78;;
10134;SDS011;5107;48.850;8.924;2023-06-19T00:48:04;6.78;;;6.10;;
10134;SDS011;5107;48.850;8.924;2023-06-19T00:50:30;6.78;;;6.18;;
10134;SDS011;5107;48.850;8.924;2023-06-19T00:52:56;6.93;;;6.22;;
10134;SDS011;5107;48.850;8.924;2023-06-19T00:55:23;7.57;;;5.10;;
10134;SDS011;5107;48.850;8.924;2023-06-19T00:57:53;6.30;;;5.28;;
10134;SDS011;5107;48.850;8.924;2023-06-19T01:00:18;6.75;;;4.90;;
10134;SDS011;5107;48.850;8.924;2023-06-19T01:02:44;6.63;;;4.75;;
10134;SDS011;5107;48.850;8.924;2023-06-19T01:05:09;7.18;;;4.25;;
10134;SDS011;5107;48.850;8.924;2023-06-19T01:10:11;9.00;;;3.80;;
10134;SDS011;5107;48.850;8.924;2023-06-19T01:12:41;8.38;;;4.10;;
10134;SDS011;5107;48.850;8.924;2023-06-19T01:15:15;4.00;;;3.58;;
10134;SDS011;5107;48.850;8.924;2023-06-19T01:17:41;8.38;;;3.90;;
10134;SDS011;5107;48.850;8.924;2023-06-19T01:20:09;4.93;;;3.95;;
10134;SDS011;5107;48.850;8.924;2023-06-19T01:22:36;5.78;;;3.92;;
10134;SDS011;5107;48.850;8.924;2023-06-19T01:25:01;5.97;;;4.35;;
10134;SDS011;5107;48.850;8.924;2023-06-19T01:27:29;5.25;;;4.28;;
10134;SDS011;5107;48.850;8.924;2023-06-19T01:29:55;6.03;;;4.65;;
10134;SDS011;5107;48.850;8.924;2023-06-19T01:32:23;4.80;;;4.40;;
10134;SDS011;5107;48.850;8.924;2023-06-19T01:34:56;4.93;;;4.53;;
10134;SDS011;5107;48.850;8.924;2023-06-19T01:37:24;5.18;;;4.65;;
10134;SDS011;5107;48.850;8.924;2023-06-19T01:39:54;5.72;;;4.60;;
10134;SDS011;5107;48.850;8.924;2023-06-19T01:42:21;6.75;;;5.18;;
10134;SDS011;5107;48.850;8.924;2023-06-19T01:44:47;4.60;;;4.15;;
10134;SDS011;5107;48.850;8.924;2023-06-19T01:47:12;5.20;;;4.68;;
10134;SDS011;5107;48.850;8.924;2023-06-19T01:49:40;8.73;;;4.50;;
10134;SDS011;5107;48.850;8.924;2023-06-19T01:52:06;5.40;;;4.63;;
10134;SDS011;5107;48.850;8.924;2023-06-19T01:54:31;4.60;;;4.20;;
10134;SDS011;5107;48.850;8.924;2023-06-19T01:56:57;4.78;;;4.10;;
10134;SDS011;5107;48.850;8.924;2023-06-19T01:59:22;5.07;;;4.53;;
10134;SDS011;5107;48.850;8.924;2023-06-19T02:01:48;4.18;;;3.88;;
10134;SDS011;5107;48.850;8.924;2023-06-19T02:04:13;5.70;;;4.13;;
10134;SDS011;5107;48.850;8.924;2023-06-19T02:06:38;4.18;;;3.88;;
10134;SDS011;5107;48.850;8.924;2023-06-19T02:09:04;4.10;;;3.70;;
10134;SDS011;5107;48.850;8.924;2023-06-19T02:11:29;3.80;;;3.50;;
10134;SDS011;5107;48.850;8.924;2023-06-19T02:13:54;4.00;;;3.25;;
10134;SDS011;5107;48.850;8.924;2023-06-19T02:16:20;3.78;;;3.47;;
10134;SDS011;5107;48.850;8.924;2023-06-19T02:18:45;4.32;;;3.58;;
10134;SDS011;5107;48.850;8.924;2023-06-19T02:21:10;3.97;;;3.67;;
10134;SDS011;5107;48.850;8.924;2023-06-19T02:23:36;3.80;;;3.50;;
10134;SDS011;5107;48.850;8.924;2023-06-19T02:26:01;3.97;;;3.67;;
10134;SDS011;5107;48.850;8.924;2023-06-19T02:28:26;3.78;;;3.47;;
10134;SDS011;5107;48.850;8.924;2023-06-19T02:30:55;3.60;;;3.30;;
10134;SDS011;5107;48.850;8.924;2023-06-19T02:33:20;4.55;;;3.70;;
10134;SDS011;5107;48.850;8.924;2023-06-19T02:35:45;4.18;;;3.80;;
10134;SDS011;5107;48.850;8.924;2023-06-19T02:38:11;4.18;;;3.88;;
10134;SDS011;5107;48.850;8.924;2023-06-19T02:40:37;4.57;;;3.88;;
10134;SDS011;5107;48.850;8.924;2023-06-19T02:43:04;4.43;;;3.90;;
10134;SDS011;5107;48.850;8.924;2023-06-19T02:45:29;4.55;;;3.88;;
10134;SDS011;5107;48.850;8.924;2023-06-19T02:47:54;4.07;;;3.67;;
10134;SDS011;5107;48.850;8.924;2023-06-19T02:50:20;3.87;;;3.57;;
10134;SDS011;5107;48.850;8.924;2023-06-19T02:52:45;3.80;;;3.50;;
10134;SDS011;5107;48.850;8.924;2023-06-19T02:55:10;3.60;;;3.30;;
10134;SDS011;5107;48.850;8.924;2023-06-19T02:57:36;3.43;;;3.13;;
10134;SDS011;5107;48.850;8.924;2023-06-19T03:00:01;3.43;;;3.17;;
10134;SDS011;5107;48.850;8.924;2023-06-19T03:02:28;4.17;;;3.37;;
10134;SDS011;5107;48.850;8.924;2023-06-19T03:04:53;3.00;;;2.80;;
10134;SDS011;5107;48.850;8.924;2023-06-19T03:07:18;2.63;;;2.43;;
10134;SDS011;5107;48.850;8.924;2023-06-19T03:09:44;3.33;;;3.07;;
10134;SDS011;5107;48.850;8.924;2023-06-19T03:12:09;2.40;;;2.20;;
10134;SDS011;5107;48.850;8.924;2023-06-19T03:14:35;2.50;;;2.30;;
10134;SDS011;5107;48.850;8.924;2023-06-19T03:17:00;2.73;;;2.53;;
10134;SDS011;5107;48.850;8.924;2023-06-19T03:19:25;2.60;;;2.40;;
10134;SDS011;5107;48.850;8.924;2023-06-19T03:21:51;2.73;;;2.53;;
10134;SDS011;5107;48.850;8.924;2023-06-19T03:24:16;2.60;;;2.40;;
10134;SDS011;5107;48.850;8.924;2023-06-19T03:26:42;2.50;;;2.30;;
10134;SDS011;5107;48.850;8.924;2023-06-19T03:29:07;2.70;;;2.50;;
10134;SDS011;5107;48.850;8.924;2023-06-19T03:31:33;2.70;;;2.50;;
10134;SDS011;5107;48.850;8.924;2023-06-19T03:33:58;2.67;;;2.47;;
10134;SDS011;5107;48.850;8.924;2023-06-19T03:36:23;2.63;;;2.43;;
10134;SDS011;5107;48.850;8.924;2023-06-19T03:38:49;2.80;;;2.40;;
10134;SDS011;5107;48.850;8.924;2023-06-19T03:41:14;2.93;;;2.50;;
10134;SDS011;5107;48.850;8.924;2023-06-19T03:43:39;2.50;;;2.30;;
10134;SDS011;5107;48.850;8.924;2023-06-19T03:46:05;2.70;;;2.50;;
10134;SDS011;5107;48.850;8.924;2023-06-19T03:48:30;2.80;;;2.53;;
10134;SDS011;5107;48.850;8.924;2023-06-19T03:50:55;2.40;;;2.20;;
10134;SDS011;5107;48.850;8.924;2023-06-19T03:53:21;2.60;;;2.40;;
10134;SDS011;5107;48.850;8.924;2023-06-19T03:55:47;2.50;;;2.30;;
10134;SDS011;5107;48.850;8.924;2023-06-19T03:58:12;3.10;;;2.80;;
10134;SDS011;5107;48.850;8.924;2023-06-19T04:00:37;3.57;;;2.40;;
10134;SDS011;5107;48.850;8.924;2023-06-19T04:03:03;2.57;;;2.37;;
10134;SDS011;5107;48.850;8.924;2023-06-19T04:05:28;2.57;;;2.37;;
10134;SDS011;5107;48.850;8.924;2023-06-19T04:07:53;2.67;;;2.47;;
10134;SDS011;5107;48.850;8.924;2023-06-19T04:10:19;2.83;;;2.63;;
10134;SDS011;5107;48.850;8.924;2023-06-19T04:12:44;2.60;;;2.40;;
10134;SDS011;5107;48.850;8.924;2023-06-19T04:15:10;2.53;;;2.33;;
10134;SDS011;5107;48.850;8.924;2023-06-19T04:17:36;2.80;;;2.60;;
10134;SDS011;5107;48.850;8.924;2023-06-19T04:20:01;4.70;;;2.70;;
10134;SDS011;5107;48.850;8.924;2023-06-19T04:22:31;3.10;;;2.90;;
10134;SDS011;5107;48.850;8.924;2023-06-19T04:24:57;2.60;;;2.40;;
10134;SDS011;5107;48.850;8.924;2023-06-19T04:27:22;4.20;;;2.70;;
10134;SDS011;5107;48.850;8.924;2023-06-19T04:29:47;3.00;;;2.70;;
10134;SDS011;5107;48.850;8.924;2023-06-19T04:32:13;2.87;;;2.67;;
10134;SDS011;5107;48.850;8.924;2023-06-19T04:34:38;2.90;;;2.70;;
10134;SDS011;5107;48.850;8.924;2023-06-19T04:37:04;3.03;;;2.80;;
10134;SDS011;5107;48.850;8.924;2023-06-19T04:39:30;2.57;;;2.13;;
10134;SDS011;5107;48.850;8.924;2023-06-19T04:41:55;2.47;;;2.30;;
10134;SDS011;5107;48.850;8.924;2023-06-19T04:44:21;3.33;;;2.50;;
10134;SDS011;5107;48.850;8.924;2023-06-19T04:46:46;2.73;;;2.53;;
10134;SDS011;5107;48.850;8.924;2023-06-19T04:49:12;3.53;;;2.70;;
10134;SDS011;5107;48.850;8.924;2023-06-19T04:51:38;2.87;;;2.63;;
10134;SDS011;5107;48.850;8.924;2023-06-19T04:54:04;2.70;;;2.50;;
10134;SDS011;5107;48.850;8.924;2023-06-19T04:56:30;2.57;;;2.37;;
10134;SDS011;5107;48.850;8.924;2023-06-19T04:58:55;2.80;;;2.60;;
10134;SDS011;5107;48.850;8.924;2023-06-19T05:01:24;2.60;;;2.40;;
10134;SDS011;5107;48.850;8.924;2023-06-19T05:03:53;2.63;;;2.43;;
10134;SDS011;5107;48.850;8.924;2023-06-19T05:06:19;2.70;;;2.50;;
10134;SDS011;5107;48.850;8.924;2023-06-19T05:08:48;2.93;;;2.67;;
10134;SDS011;5107;48.850;8.924;2023-06-19T05:11:13;2.73;;;2.53;;
10134;SDS011;5107;48.850;8.924;2023-06-19T05:13:39;2.60;;;2.40;;
10134;SDS011;5107;48.850;8.924;2023-06-19T05:16:04;3.00;;;2.77;;
10134;SDS011;5107;48.850;8.924;2023-06-19T05:18:29;3.20;;;2.90;;
10134;SDS011;5107;48.850;8.924;2023-06-19T05:20:55;3.10;;;2.80;;
10134;SDS011;5107;48.850;8.924;2023-06-19T05:23:20;3.37;;;2.70;;
10134;SDS011;5107;48.850;8.924;2023-06-19T05:25:45;3.10;;;2.90;;
10134;SDS011;5107;48.850;8.924;2023-06-19T05:28:11;3.17;;;2.87;;
10134;SDS011;5107;48.850;8.924;2023-06-19T05:30:36;3.00;;;2.80;;
10134;SDS011;5107;48.850;8.924;2023-06-19T05:33:01;3.30;;;3.00;;
10134;SDS011;5107;48.850;8.924;2023-06-19T05:35:27;3.40;;;3.10;;
10134;SDS011;5107;48.850;8.924;2023-06-19T05:37:52;3.60;;;2.63;;
10134;SDS011;5107;48.850;8.924;2023-06-19T05:40:17;3.30;;;3.00;;
10134;SDS011;5107;48.850;8.924;2023-06-19T05:42:43;3.10;;;2.90;;
10134;SDS011;5107;48.850;8.924;2023-06-19T05:45:08;3.08;;;2.88;;
10134;SDS011;5107;48.850;8.924;2023-06-19T05:47:34;3.22;;;2.95;;
10134;SDS011;5107;48.850;8.924;2023-06-19T05:49:59;3.42;;;3.13;;
10134;SDS011;5107;48.850;8.924;2023-06-19T05:52:25;4.57;;;2.92;;
10134;SDS011;5107;48.850;8.924;2023-06-19T05:54:50;3.17;;;2.88;;
10134;SDS011;5107;48.850;8.924;2023-06-19T05:57:17;3.17;;;2.88;;
10134;SDS011;5107;48.850;8.924;2023-06-19T05:59:46;3.20;;;2.90;;
10134;SDS011;5107;48.850;8.924;2023-06-19T06:02:12;3.05;;;2.85;;
10134;SDS011;5107;48.850;8.924;2023-06-19T06:04:37;3.70;;;2.70;;
10134;SDS011;5107;48.850;8.924;2023-06-19T06:07:02;3.38;;;3.17;;
10134;SDS011;5107;48.850;8.924;2023-06-19T06:09:28;3.00;;;2.80;;
10134;SDS011;5107;48.850;8.924;2023-06-19T06:11:53;4.32;;;3.05;;
10134;SDS011;5107;48.850;8.924;2023-06-19T06:14:19;6.85;;;3.22;;
10134;SDS011;5107;48.850;8.924;2023-06-19T06:16:44;3.53;;;3.22;;
10134;SDS011;5107;48.850;8.924;2023-06-19T06:19:09;7.00;;;3.10;;
10134;SDS011;5107;48.850;8.924;2023-06-19T06:21:35;4.57;;;3.30;;
10134;SDS011;5107;48.850;8.924;2023-06-19T06:24:01;3.65;;;3.15;;
10134;SDS011;5107;48.850;8.924;2023-06-19T06:26:26;3.17;;;2.90;;
10134;SDS011;5107;48.850;8.924;2023-06-19T06:28:53;3.33;;;2.85;;
10134;SDS011;5107;48.850;8.924;2023-06-19T06:31:18;3.22;;;2.97;;
10134;SDS011;5107;48.850;8.924;2023-06-19T06:33:43;3.65;;;3.33;;
10134;SDS011;5107;48.850;8.924;2023-06-19T06:36:09;3.42;;;3.10;;
10134;SDS011;5107;48.850;8.924;2023-06-19T06:38:34;3.60;;;3.30;;
10134;SDS011;5107;48.850;8.924;2023-06-19T06:41:00;3.47;;;3.17;;
10134;SDS011;5107;48.850;8.924;2023-06-19T06:43:25;3.55;;;3.25;;
10134;SDS011;5107;48.850;8.924;2023-06-19T06:45:50;3.33;;;3.03;;
10134;SDS011;5107;48.850;8.924;2023-06-19T06:48:16;4.43;;;3.60;;
10134;SDS011;5107;48.850;8.924;2023-06-19T06:50:41;3.58;;;3.28;;
10134;SDS011;5107;48.850;8.924;2023-06-19T06:53:07;3.63;;;3.33;;
10134;SDS011;5107;48.850;8.924;2023-06-19T06:55:33;6.28;;;3.42;;
10134;SDS011;5107;48.850;8.924;2023-06-19T06:57:58;3.65;;;3.35;;
10134;SDS011;5107;48.850;8.924;2023-06-19T07:00:23;4.00;;;3.40;;
10134;SDS011;5107;48.850;8.924;2023-06-19T07:02:49;3.78;;;3.47;;
10134;SDS011;5107;48.850;8.924;2023-06-19T07:05:15;5.57;;;3.30;;
10134;SDS011;5107;48.850;8.924;2023-06-19T07:07:41;5.40;;;3.28;;
10134;SDS011;5107;48.850;8.924;2023-06-19T07:10:06;4.00;;;3.22;;
10134;SDS011;5107;48.850;8.924;2023-06-19T07:12:32;3.35;;;3.15;;
10134;SDS011;5107;48.850;8.924;2023-06-19T07:14:58;4.13;;;3.53;;
10134;SDS011;5107;48.850;8.924;2023-06-19T07:17:24;3.50;;;3.30;;
10134;SDS011;5107;48.850;8.924;2023-06-19T07:19:49;3.65;;;3.35;;
10134;SDS011;5107;48.850;8.924;2023-06-19T07:22:14;3.28;;;3.08;;
10134;SDS011;5107;48.850;8.924;2023-06-19T07:24:40;3.78;;;3.13;;
10134;SDS011;5107;48.850;8.924;2023-06-19T07:27:06;3.40;;;3.10;;
10134;SDS011;5107;48.850;8.924;2023-06-19T07:29:31;4.07;;;3.53;;
10134;SDS011;5107;48.850;8.924;2023-06-19T07:31:57;3.60;;;3.30;;
10134;SDS011;5107;48.850;8.924;2023-06-19T07:34:23;3.55;;;2.97;;
10134;SDS011;5107;48.850;8.924;2023-06-19T07:36:48;4.80;;;3.55;;
10134;SDS011;5107;48.850;8.924;2023-06-19T07:39:14;4.93;;;3.35;;
10134;SDS011;5107;48.850;8.924;2023-06-19T07:41:39;3.60;;;3.30;;
10134;SDS011;5107;48.850;8.924;2023-06-19T07:44:05;3.70;;;3.30;;
10134;SDS011;5107;48.850;8.924;2023-06-19T07:46:30;4.10;;;3.70;;
10134;SDS011;5107;48.850;8.924;2023-06-19T07:48:55;3.58;;;3.30;;
10134;SDS011;5107;48.850;8.924;2023-06-19T07:51:21;3.38;;;2.97;;
10134;SDS011;5107;48.850;8.924;2023-06-19T07:53:46;3.53;;;3.22;;
10134;SDS011;5107;48.850;8.924;2023-06-19T07:56:11;3.70;;;3.25;;
10134;SDS011;5107;48.850;8.924;2023-06-19T07:58:37;3.78;;;3.47;;
10134;SDS011;5107;48.850;8.924;2023-06-19T08:01:02;3.58;;;3.22;;
10134;SDS011;5107;48.850;8.924;2023-06-19T08:03:27;4.32;;;3.10;;
10134;SDS011;5107;48.850;8.924;2023-06-19T08:05:53;3.10;;;2.90;;
10134;SDS011;5107;48.850;8.924;2023-06-19T08:08:18;3.47;;;3.20;;
10134;SDS011;5107;48.850;8.924;2023-06-19T08:10:43;3.20;;;3.00;;
10134;SDS011;5107;48.850;8.924;2023-06-19T08:13:09;3.30;;;3.10;;
10134;SDS011;5107;48.850;8.924;2023-06-19T08:15:36;3.95;;;3.05;;
10134;SDS011;5107;48.850;8.924;2023-06-19T08:18:01;3.42;;;3.13;;
10134;SDS011;5107;48.850;8.924;2023-06-19T08:20:27;4.35;;;3.50;;
10134;SDS011;5107;48.850;8.924;2023-06-19T08:22:53;3.42;;;3.20;;
10134;SDS011;5107;48.850;8.924;2023-06-19T08:25:18;3.65;;;3.20;;
10134;SDS011;5107;48.850;8.924;2023-06-19T08:27:43;3.92;;;3.35;;
10134;SDS011;5107;48.850;8.924;2023-06-19T08:30:10;3.42;;;3.13;;
10134;SDS011;5107;48.850;8.924;2023-06-19T08:32:36;4.07;;;3.50;;
10134;SDS011;5107;48.850;8.924;2023-06-19T08:35:01;3.53;;;3.20;;
10134;SDS011;5107;48.850;8.924;2023-06-19T08:37:28;4.05;;;3.65;;
10134;SDS011;5107;48.850;8.924;2023-06-19T08:39:53;5.15;;;3.38;;
10134;SDS011;5107;48.850;8.924;2023-06-19T08:42:20;3.70;;;3.40;;
10134;SDS011;5107;48.850;8.924;2023-06-19T08:44:45;4.07;;;3.70;;
10134;SDS011;5107;48.850;8.924;2023-06-19T08:47:12;3.90;;;3.60;;
10134;SDS011;5107;48.850;8.924;2023-06-19T08:49:37;3.97;;;3.67;;
10134;SDS011;5107;48.850;8.924;2023-06-19T08:52:04;3.60;;;3.30;;
10134;SDS011;5107;48.850;8.924;2023-06-19T08:54:29;3.80;;;3.50;;
10134;SDS011;5107;48.850;8.924;2023-06-19T08:56:55;4.35;;;3.50;;
10134;SDS011;5107;48.850;8.924;2023-06-19T08:59:21;4.82;;;3.50;;
10134;SDS011;5107;48.850;8.924;2023-06-19T09:01:50;3.67;;;3.35;;
10134;SDS011;5107;48.850;8.924;2023-06-19T09:04:17;3.95;;;3.47;;
10134;SDS011;5107;48.850;8.924;2023-06-19T09:06:53;3.70;;;3.40;;
10134;SDS011;5107;48.850;8.924;2023-06-19T09:09:27;5.75;;;3.80;;
10134;SDS011;5107;48.850;8.924;2023-06-19T09:14:41;5.90;;;3.70;;
10134;SDS011;5107;48.850;8.924;2023-06-19T09:17:10;3.72;;;3.40;;
10134;SDS011;5107;48.850;8.924;2023-06-19T09:19:54;3.75;;;3.47;;
10134;SDS011;5107;48.850;8.924;2023-06-19T09:22:22;3.58;;;3.28;;
10134;SDS011;5107;48.850;8.924;2023-06-19T09:24:50;18.77;;;3.97;;
10134;SDS011;5107;48.850;8.924;2023-06-19T09:27:16;4.35;;;3.28;;
10134;SDS011;5107;48.850;8.924;2023-06-19T09:29:46;3.30;;;3.10;;
10134;SDS011;5107;48.850;8.924;2023-06-19T09:32:16;4.03;;;3.72;;
10134;SDS011;5107;48.850;8.924;2023-06-19T09:34:41;4.25;;;3.40;;
10134;SDS011;5107;48.850;8.924;2023-06-19T09:37:07;3.45;;;3.22;;
10134;SDS011;5107;48.850;8.924;2023-06-19T09:39:34;3.38;;;3.08;;
10134;SDS011;5107;48.850;8.924;2023-06-19T09:42:02;3.58;;;3.28;;
10134;SDS011;5107;48.850;8.924;2023-06-19T09:44:29;3.50;;;3.10;;
10134;SDS011;5107;48.850;8.924;2023-06-19T09:46:59;3.28;;;2.97;;
10134;SDS011;5107;48.850;8.924;2023-06-19T09:49:26;3.05;;;2.85;;
10134;SDS011;5107;48.850;8.924;2023-06-19T09:51:57;4.18;;;3.33;;
10134;SDS011;5107;48.850;8.924;2023-06-19T09:54:23;3.40;;;3.10;;
10134;SDS011;5107;48.850;8.924;2023-06-19T09:56:50;3.80;;;3.35;;
10134;SDS011;5107;48.850;8.924;2023-06-19T09:59:20;3.80;;;3.50;;
10134;SDS011;5107;48.850;8.924;2023-06-19T10:01:47;4.78;;;3.80;;
10134;SDS011;5107;48.850;8.924;2023-06-19T10:04:14;3.78;;;3.47;;
10134;SDS011;5107;48.850;8.924;2023-06-19T10:06:47;3.95;;;3.72;;
10134;SDS011;5107;48.850;8.924;2023-06-19T10:09:14;5.47;;;3.90;;
10134;SDS011;5107;48.850;8.924;2023-06-19T10:11:47;4.18;;;3.78;;
10134;SDS011;5107;48.850;8.924;2023-06-19T10:14:13;4.05;;;3.75;;
10134;SDS011;5107;48.850;8.924;2023-06-19T10:16:40;4.55;;;4.18;;
10134;SDS011;5107;48.850;8.924;2023-06-19T10:19:16;4.30;;;3.90;;
10134;SDS011;5107;48.850;8.924;2023-06-19T10:21:46;4.10;;;3.70;;
10134;SDS011;5107;48.850;8.924;2023-06-19T10:24:19;4.28;;;3.97;;
10134;SDS011;5107;48.850;8.924;2023-06-19T10:27:01;4.35;;;3.95;;
10134;SDS011;5107;48.850;8.924;2023-06-19T10:29:37;3.97;;;3.67;;
10134;SDS011;5107;48.850;8.924;2023-06-19T10:32:04;4.10;;;3.80;;
10134;SDS011;5107;48.850;8.924;2023-06-19T10:34:33;5.15;;;4.10;;
10134;SDS011;5107;48.850;8.924;2023-06-19T10:36:59;4.43;;;4.07;;
10134;SDS011;5107;48.850;8.924;2023-06-19T10:39:24;4.10;;;3.80;;
10134;SDS011;5107;48.850;8.924;2023-06-19T10:41:50;4.30;;;4.00;;
10134;SDS011;5107;48.850;8.924;2023-06-19T10:44:15;4.57;;;3.97;;
10134;SDS011;5107;48.850;8.924;2023-06-19T10:46:41;4.10;;;3.80;;
10134;SDS011;5107;48.850;8.924;2023-06-19T10:49:07;3.88;;;3.58;;
10134;SDS011;5107;48.850;8.924;2023-06-19T10:51:35;4.32;;;3.80;;
10134;SDS011;5107;48.850;8.924;2023-06-19T10:54:02;4.28;;;3.92;;
10134;SDS011;5107;48.850;8.924;2023-06-19T10:56:28;4.22;;;3.80;;
10134;SDS011;5107;48.850;8.924;2023-06-19T10:58:57;3.53;;;3.33;;
10134;SDS011;5107;48.850;8.924;2023-06-19T11:01:34;3.75;;;3.45;;
10134;SDS011;5107;48.850;8.924;2023-06-19T11:04:08;4.30;;;3.90;;
10134;SDS011;5107;48.850;8.924;2023-06-19T11:06:35;3.63;;;3.40;;
10134;SDS011;5107;48.850;8.924;2023-06-19T11:09:02;4.18;;;3.88;;
10134;SDS011;5107;48.850;8.924;2023-06-19T11:11:34;3.90;;;3.55;;
10134;SDS011;5107;48.850;8.924;2023-06-19T11:14:01;3.38;;;3.17;;
10134;SDS011;5107;48.850;8.924;2023-06-19T11:16:26;4.25;;;3.85;;
10134;SDS011;5107;48.850;8.924;2023-06-19T11:18:55;3.97;;;3.67;;
10134;SDS011;5107;48.850;8.924;2023-06-19T11:21:30;3.95;;;3.65;;
10134;SDS011;5107;48.850;8.924;2023-06-19T11:24:02;3.80;;;3.50;;
10134;SDS011;5107;48.850;8.924;2023-06-19T11:26:27;3.95;;;3.53;;
10134;SDS011;5107;48.850;8.924;2023-06-19T11:28:53;3.55;;;3.35;;
10134;SDS011;5107;48.850;8.924;2023-06-19T11:31:25;4.47;;;3.88;;
10134;SDS011;5107;48.850;8.924;2023-06-19T11:33:58;3.50;;;3.20;;
10134;SDS011;5107;48.850;8.924;2023-06-19T11:36:29;4.05;;;3.63;;
10134;SDS011;5107;48.850;8.924;2023-06-19T11:38:55;4.03;;;3.72;;
10134;SDS011;5107;48.850;8.924;2023-06-19T11:41:27;4.15;;;3.85;;
10134;SDS011;5107;48.850;8.924;2023-06-19T11:44:00;4.13;;;3.72;;
10134;SDS011;5107;48.850;8.924;2023-06-19T11:46:29;4.07;;;3.78;;
10134;SDS011;5107;48.850;8.924;2023-06-19T11:49:00;4.30;;;4.00;;
10134;SDS011;5107;48.850;8.924;2023-06-19T11:51:35;4.50;;;4.20;;
10134;SDS011;5107;48.850;8.924;2023-06-19T11:54:01;4.35;;;3.88;;
10134;SDS011;5107;48.850;8.924;2023-06-19T11:56:28;4.55;;;4.13;;
10134;SDS011;5107;48.850;8.924;2023-06-19T11:58:53;4.10;;;3.80;;
10134;SDS011;5107;48.850;8.924;2023-06-19T12:01:18;4.07;;;3.78;;
10134;SDS011;5107;48.850;8.924;2023-06-19T12:03:43;4.50;;;4.10;;
10134;SDS011;5107;48.850;8.924;2023-06-19T12:06:09;4.90;;;4.50;;
10134;SDS011;5107;48.850;8.924;2023-06-19T12:08:34;4.35;;;4.05;;
10134;SDS011;5107;48.850;8.924;2023-06-19T12:11:02;4.30;;;3.90;;
10134;SDS011;5107;48.850;8.924;2023-06-19T12:13:28;4.40;;;3.80;;
10134;SDS011;5107;48.850;8.924;2023-06-19T12:15:53;4.30;;;4.00;;
10134;SDS011;5107;48.850;8.924;2023-06-19T12:18:18;4.43;;;4.10;;
10134;SDS011;5107;48.850;8.924;2023-06-19T12:20:44;3.90;;;3.60;;
10134;SDS011;5107;48.850;8.924;2023-06-19T12:23:09;4.25;;;3.90;;
10134;SDS011;5107;48.850;8.924;2023-06-19T12:25:34;4.43;;;4.03;;
10134;SDS011;5107;48.850;8.924;2023-06-19T12:28:00;4.70;;;4.28;;
10134;SDS011;5107;48.850;8.924;2023-06-19T12:30:25;4.50;;;4.10;;
10134;SDS011;5107;48.850;8.924;2023-06-19T12:32:50;4.32;;;3.92;;
10134;SDS011;5107;48.850;8.924;2023-06-19T12:35:16;4.40;;;4.10;;
10134;SDS011;5107;48.850;8.924;2023-06-19T12:37:41;4.32;;;4.00;;
10134;SDS011;5107;48.850;8.924;2023-06-19T12:40:07;4.38;;;3.97;;
10134;SDS011;5107;48.850;8.924;2023-06-19T12:42:36;4.43;;;4.00;;
10134;SDS011;5107;48.850;8.924;2023-06-19T12:45:02;4.35;;;3.97;;
10134;SDS011;5107;48.850;8.924;2023-06-19T12:47:28;4.28;;;3.97;;
10134;SDS011;5107;48.850;8.924;2023-06-19T12:49:53;4.55;;;4.15;;
10134;SDS011;5107;48.850;8.924;2023-06-19T12:52:19;4.65;;;4.22;;
10134;SDS011;5107;48.850;8.924;2023-06-19T12:54:44;4.20;;;3.90;;
10134;SDS011;5107;48.850;8.924;2023-06-19T12:57:09;4.45;;;4.05;;
10134;SDS011;5107;48.850;8.924;2023-06-19T12:59:35;7.22;;;4.32;;
10134;SDS011;5107;48.850;8.924;2023-06-19T13:02:00;4.45;;;4.05;;
10134;SDS011;5107;48.850;8.924;2023-06-19T13:04:26;5.65;;;4.20;;
10134;SDS011;5107;48.850;8.924;2023-06-19T13:06:51;4.22;;;3.92;;
10134;SDS011;5107;48.850;8.924;2023-06-19T13:09:16;4.10;;;3.72;;
10134;SDS011;5107;48.850;8.924;2023-06-19T13:11:42;5.55;;;4.70;;
10134;SDS011;5107;48.850;8.924;2023-06-19T13:14:07;4.55;;;4.15;;
10134;SDS011;5107;48.850;8.924;2023-06-19T13:16:32;4.63;;;4.20;;
10134;SDS011;5107;48.850;8.924;2023-06-19T13:18:58;5.50;;;4.15;;
10134;SDS011;5107;48.850;8.924;2023-06-19T13:21:23;4.60;;;4.20;;
10134;SDS011;5107;48.850;8.924;2023-06-19T13:23:48;4.80;;;4.40;;
10134;SDS011;5107;48.850;8.924;2023-06-19T13:26:14;4.93;;;4.60;;
10134;SDS011;5107;48.850;8.924;2023-06-19T13:28:40;4.57;;;4.28;;
10134;SDS011;5107;48.850;8.924;2023-06-19T13:31:05;4.50;;;4.20;;
10134;SDS011;5107;48.850;8.924;2023-06-19T13:33:30;4.53;;;4.05;;
10134;SDS011;5107;48.850;8.924;2023-06-19T13:35:56;4.35;;;3.95;;
10134;SDS011;5107;48.850;8.924;2023-06-19T13:38:21;4.30;;;3.88;;
10134;SDS011;5107;48.850;8.924;2023-06-19T13:40:47;4.68;;;4.28;;
10134;SDS011;5107;48.850;8.924;2023-06-19T13:43:12;3.97;;;3.78;;
10134;SDS011;5107;48.850;8.924;2023-06-19T13:45:38;4.47;;;4.07;;
10134;SDS011;5107;48.850;8.924;2023-06-19T13:48:04;4.28;;;3.97;;
10134;SDS011;5107;48.850;8.924;2023-06-19T13:50:30;4.60;;;4.30;;
10134;SDS011;5107;48.850;8.924;2023-06-19T13:52:57;4.95;;;4.25;;
10134;SDS011;5107;48.850;8.924;2023-06-19T13:55:22;4.57;;;4.22;;
10134;SDS011;5107;48.850;8.924;2023-06-19T13:57:48;4.47;;;4.15;;
10134;SDS011;5107;48.850;8.924;2023-06-19T14:00:13;4.57;;;4.25;;
10134;SDS011;5107;48.850;8.924;2023-06-19T14:02:39;4.00;;;3.72;;
10134;SDS011;5107;48.850;8.924;2023-06-19T14:05:06;4.60;;;4.18;;
10134;SDS011;5107;48.850;8.924;2023-06-19T14:07:33;4.15;;;3.85;;
10134;SDS011;5107;48.850;8.924;2023-06-19T14:10:00;4.25;;;3.92;;
10134;SDS011;5107;48.850;8.924;2023-06-19T14:12:26;4.35;;;4.05;;
10134;SDS011;5107;48.850;8.924;2023-06-19T14:14:51;6.15;;;4.00;;
10134;SDS011;5107;48.850;8.924;2023-06-19T14:17:17;4.20;;;3.90;;
10134;SDS011;5107;48.850;8.924;2023-06-19T14:19:42;4.80;;;4.50;;
10134;SDS011;5107;48.850;8.924;2023-06-19T14:22:08;4.35;;;4.00;;
10134;SDS011;5107;48.850;8.924;2023-06-19T14:24:33;5.70;;;4.00;;
10134;SDS011;5107;48.850;8.924;2023-06-19T14:26:58;4.30;;;4.00;;
10134;SDS011;5107;48.850;8.924;2023-06-19T14:29:24;4.70;;;4.30;;
10134;SDS011;5107;48.850;8.924;2023-06-19T14:31:52;4.10;;;3.80;;
10134;SDS011;5107;48.850;8.924;2023-06-19T14:34:21;4.72;;;4.32;;
10134;SDS011;5107;48.850;8.924;2023-06-19T14:36:46;4.53;;;4.10;;
10134;SDS011;5107;48.850;8.924;2023-06-19T14:39:12;4.47;;;4.07;;
10134;SDS011;5107;48.850;8.924;2023-06-19T14:41:38;4.90;;;4.00;;
10134;SDS011;5107;48.850;8.924;2023-06-19T14:44:04;4.28;;;3.97;;
10134;SDS011;5107;48.850;8.924;2023-06-19T14:46:30;5.68;;;4.05;;
10134;SDS011;5107;48.850;8.924;2023-06-19T14:48:56;4.43;;;3.83;;
10134;SDS011;5107;48.850;8.924;2023-06-19T14:51:26;4.72;;;4.07;;
10134;SDS011;5107;48.850;8.924;2023-06-19T14:53:52;4.60;;;4.07;;
10134;SDS011;5107;48.850;8.924;2023-06-19T14:56:17;5.30;;;4.80;;
10134;SDS011;5107;48.850;8.924;2023-06-19T14:58:43;4.72;;;4.30;;
10134;SDS011;5107;48.850;8.924;2023-06-19T15:01:08;4.72;;;4.25;;